createdAt,value
2018-07-05T00:05:27.009Z,22.90
2018-07-05T00:08:06.659Z,23.20
2018-07-05T00:10:46.321Z,23.10
2018-07-05T00:13:26.126Z,22.80
2018-07-05T00:16:05.773Z,22.70
2018-07-05T00:18:45.370Z,22.50
2018-07-05T00:21:25.070Z,22.20
2018-07-05T00:24:05.001Z,22.10
2018-07-05T00:26:44.506Z,22.10
2018-07-05T00:29:24.180Z,22.00
2018-07-05T00:32:04.762Z,21.80
2018-07-05T00:34:44.319Z,21.60
2018-07-05T00:37:23.936Z,21.40
2018-07-05T00:40:03.590Z,21.80
2018-07-05T00:42:43.399Z,22.10
2018-07-05T00:45:22.863Z,22.30
2018-07-05T00:48:02.543Z,22.10
2018-07-05T00:50:43.212Z,21.80
2018-07-05T00:53:22.914Z,21.80
2018-07-05T00:56:02.559Z,21.90
2018-07-05T00:58:42.447Z,22.10
2018-07-05T01:01:22.303Z,22.40
2018-07-05T01:04:01.972Z,22.40
2018-07-05T01:06:43.593Z,22.50
2018-07-05T01:09:23.147Z,22.60
2018-07-05T01:12:02.738Z,22.60
2018-07-05T01:14:43.626Z,22.60
2018-07-05T01:17:23.210Z,22.40
2018-07-05T01:20:02.766Z,22.40
2018-07-05T01:22:42.536Z,22.30
2018-07-05T01:25:22.158Z,22.30
2018-07-05T01:31:03.786Z,22.10
2018-07-05T01:33:43.397Z,22.00
2018-07-05T01:39:24.427Z,22.10
2018-07-05T01:42:04.454Z,21.90
2018-07-05T01:44:44.322Z,21.70
2018-07-05T01:47:24.018Z,21.80
2018-07-05T01:50:03.778Z,21.40
2018-07-05T01:52:43.482Z,21.20
2018-07-05T01:55:23.059Z,21.50
2018-07-05T01:58:02.449Z,21.50
2018-07-05T02:00:42.678Z,21.50
2018-07-05T02:03:22.248Z,21.50
2018-07-05T02:06:01.874Z,21.40
2018-07-05T02:08:41.878Z,21.20
2018-07-05T02:14:23.162Z,21.00
2018-07-05T02:17:02.743Z,21.00
2018-07-05T02:19:43.391Z,21.30
2018-07-05T02:22:22.924Z,21.50
2018-07-05T02:25:02.399Z,21.70
2018-07-05T02:27:41.911Z,21.80
2018-07-05T02:30:21.499Z,21.90
2018-07-05T02:33:01.402Z,21.80
2018-07-05T02:35:40.840Z,21.80
2018-07-05T02:38:22.461Z,21.50
2018-07-05T02:41:02.594Z,21.40
2018-07-05T02:43:42.802Z,21.40
2018-07-05T02:46:22.587Z,21.40
2018-07-05T02:49:02.174Z,21.20
2018-07-05T02:51:41.991Z,21.10
2018-07-05T02:54:21.582Z,20.80
2018-07-05T02:57:01.199Z,20.70
2018-07-05T02:59:40.858Z,21.00
2018-07-05T03:02:20.311Z,21.10
2018-07-05T03:04:59.959Z,21.30
2018-07-05T03:07:39.530Z,21.40
2018-07-05T03:10:19.957Z,21.50
2018-07-05T03:12:59.748Z,21.40
2018-07-05T03:15:39.304Z,21.30
2018-07-05T03:18:19.006Z,21.30
2018-07-05T03:20:58.543Z,21.30
2018-07-05T03:23:38.303Z,21.30
2018-07-05T03:26:17.941Z,21.00
2018-07-05T03:28:58.337Z,20.90
2018-07-05T03:31:37.659Z,21.10
2018-07-05T03:34:17.264Z,20.80
2018-07-05T03:36:56.783Z,20.70
2018-07-05T03:39:36.751Z,20.70
2018-07-05T03:42:16.323Z,20.40
2018-07-05T03:44:56.052Z,20.60
2018-07-05T03:47:35.644Z,20.50
2018-07-05T03:50:15.222Z,20.50
2018-07-05T03:52:54.785Z,20.50
2018-07-05T03:55:34.384Z,20.90
2018-07-05T03:58:13.967Z,20.90
2018-07-05T04:00:53.826Z,21.10
2018-07-05T04:03:33.412Z,21.30
2018-07-05T04:06:13.571Z,21.40
2018-07-05T04:08:53.390Z,21.50
2018-07-05T04:11:32.973Z,21.40
2018-07-05T04:14:12.817Z,21.60
2018-07-05T04:16:52.579Z,21.70
2018-07-05T04:19:32.218Z,21.20
2018-07-05T04:22:12.217Z,21.40
2018-07-05T04:24:51.640Z,21.60
2018-07-05T04:27:31.258Z,21.90
2018-07-05T04:30:11.603Z,22.00
2018-07-05T04:32:51.643Z,21.90
2018-07-05T04:35:31.129Z,21.90
2018-07-05T04:38:10.698Z,21.70
2018-07-05T04:40:50.366Z,21.60
2018-07-05T04:43:30.014Z,21.70
2018-07-05T04:46:09.604Z,21.70
2018-07-05T04:48:49.223Z,21.70
2018-07-05T04:51:28.896Z,21.70
2018-07-05T04:54:08.504Z,21.80
2018-07-05T04:56:48.143Z,21.70
2018-07-05T04:59:27.751Z,21.70
2018-07-05T05:02:07.240Z,21.70
2018-07-05T05:04:46.798Z,21.70
2018-07-05T05:07:26.348Z,21.70
2018-07-05T05:10:06.916Z,21.90
2018-07-05T05:12:46.616Z,22.10
2018-07-05T05:15:26.435Z,22.20
2018-07-05T05:18:06.141Z,22.40
2018-07-05T05:20:45.657Z,22.60
2018-07-05T05:23:25.219Z,22.80
2018-07-05T05:26:05.256Z,23.10
2018-07-05T05:28:44.869Z,23.20
2018-07-05T05:31:25.414Z,23.20
2018-07-05T05:34:05.262Z,23.30
2018-07-05T05:36:44.871Z,23.40
2018-07-05T05:39:24.479Z,23.40
2018-07-05T05:42:04.139Z,23.50
2018-07-05T05:44:43.666Z,23.60
2018-07-05T05:47:23.272Z,23.90
2018-07-05T05:50:02.741Z,24.00
2018-07-05T05:52:42.423Z,24.10
2018-07-05T05:55:21.914Z,24.20
2018-07-05T05:58:01.372Z,24.30
2018-07-05T06:00:40.965Z,24.40
2018-07-05T06:03:20.574Z,24.40
2018-07-05T06:06:00.147Z,24.50
2018-07-05T06:08:39.837Z,24.60
2018-07-05T06:11:19.766Z,24.70
2018-07-05T06:13:59.283Z,24.90
2018-07-05T06:16:38.809Z,24.90
2018-07-05T06:19:20.016Z,25.10
2018-07-05T06:21:59.457Z,25.10
2018-07-05T06:24:39.029Z,25.30
2018-07-05T06:27:18.479Z,25.20
2018-07-05T06:29:58.200Z,25.50
2018-07-05T06:32:37.777Z,25.50
2018-07-05T06:35:17.392Z,25.80
2018-07-05T06:37:57.411Z,25.90
2018-07-05T06:40:36.908Z,25.80
2018-07-05T06:43:16.530Z,25.90
2018-07-05T06:45:56.199Z,26.00
2018-07-05T06:48:35.694Z,26.20
2018-07-05T06:51:15.338Z,26.20
2018-07-05T06:53:55.153Z,26.40
2018-07-05T06:56:35.226Z,26.50
2018-07-05T06:59:15.459Z,26.60
2018-07-05T07:01:55.531Z,26.70
2018-07-05T07:07:34.619Z,27.00
2018-07-05T07:10:14.306Z,27.30
2018-07-05T07:12:53.910Z,27.50
2018-07-05T07:15:39.306Z,27.80
2018-07-05T07:18:19.279Z,28.00
2018-07-05T07:20:58.867Z,28.30
2018-07-05T07:23:38.517Z,28.60
2018-07-05T07:26:18.101Z,29.10
2018-07-05T07:28:57.750Z,29.30
2018-07-05T07:31:37.269Z,29.60
2018-07-05T07:34:18.002Z,29.80
2018-07-05T07:36:58.682Z,30.10
2018-07-05T07:39:38.286Z,30.30
2018-07-05T07:42:05.828Z,30.30
2018-07-05T07:44:33.076Z,30.60
2018-07-05T07:47:01.030Z,31.20
2018-07-05T07:49:28.334Z,31.60
2018-07-05T07:51:55.750Z,32.00
2018-07-05T07:54:43.057Z,32.40
2018-07-05T07:57:10.474Z,33.00
2018-07-05T07:59:37.776Z,33.50
2018-07-05T08:02:05.084Z,34.30
2018-07-05T08:04:32.336Z,35.30
2018-07-05T08:06:59.588Z,35.90
2018-07-05T08:09:27.087Z,35.60
2018-07-05T08:11:54.499Z,36.00
2018-07-05T08:14:21.746Z,37.00
2018-07-05T08:16:49.048Z,38.20
2018-07-05T08:19:16.311Z,39.60
2018-07-05T08:21:43.687Z,40.90
2018-07-05T08:24:10.926Z,42.40
2018-07-05T08:26:38.558Z,43.40
2018-07-05T08:29:06.461Z,44.10
2018-07-05T08:31:33.715Z,43.90
2018-07-05T08:34:00.984Z,44.30
2018-07-05T08:36:29.963Z,44.90
2018-07-05T08:38:57.494Z,45.60
2018-07-05T08:41:24.745Z,45.70
2018-07-05T08:43:52.446Z,46.60
2018-07-05T08:46:20.070Z,47.60
2018-07-05T08:48:47.520Z,48.70
2018-07-05T08:51:14.818Z,49.10
2018-07-05T08:53:42.024Z,49.00
2018-07-05T08:56:09.289Z,49.70
2018-07-05T08:58:36.562Z,50.70
2018-07-05T09:01:03.831Z,50.60
2018-07-05T09:03:31.070Z,50.30
2018-07-05T09:05:58.610Z,49.70
2018-07-05T09:08:25.895Z,49.80
2018-07-05T09:10:53.118Z,49.60
2018-07-05T09:13:20.535Z,49.00
2018-07-05T09:15:47.817Z,48.10
2018-07-05T09:18:15.112Z,47.60
2018-07-05T09:20:42.290Z,47.80
2018-07-05T09:23:09.597Z,48.50
2018-07-05T09:25:37.029Z,49.40
2018-07-05T09:28:04.271Z,50.10
2018-07-05T09:30:31.525Z,50.50
2018-07-05T09:32:59.737Z,50.40
2018-07-05T09:35:26.978Z,50.40
2018-07-05T09:37:54.284Z,49.90
2018-07-05T09:40:21.533Z,49.40
2018-07-05T09:42:49.634Z,49.00
2018-07-05T09:45:17.135Z,48.90
2018-07-05T09:47:44.859Z,48.90
2018-07-05T09:50:12.246Z,49.50
2018-07-05T09:52:39.820Z,50.20
2018-07-05T09:55:07.282Z,50.30
2018-07-05T09:57:34.713Z,49.50
2018-07-05T10:00:02.271Z,48.70
2018-07-05T10:02:29.814Z,48.30
2018-07-05T10:04:57.259Z,48.10
2018-07-05T10:07:25.207Z,48.80
2018-07-05T10:09:52.580Z,49.90
2018-07-05T10:12:20.091Z,50.60
2018-07-05T10:14:48.027Z,50.30
2018-07-05T10:17:15.585Z,50.50
2018-07-05T10:19:44.371Z,51.10
2018-07-05T10:22:13.835Z,51.20
2018-07-05T10:24:41.487Z,51.50
2018-07-05T10:27:08.962Z,51.90
2018-07-05T10:29:48.472Z,51.30
2018-07-05T10:32:28.623Z,50.70
2018-07-05T10:34:56.491Z,50.10
2018-07-05T10:37:24.743Z,50.10
2018-07-05T10:40:05.601Z,49.70
2018-07-05T10:42:45.098Z,49.80
2018-07-05T10:45:26.245Z,50.10
2018-07-05T10:48:05.948Z,50.60
2018-07-05T10:50:45.524Z,49.90
2018-07-05T10:53:25.452Z,48.60
2018-07-05T10:56:05.525Z,47.90
2018-07-05T10:58:46.350Z,47.10
2018-07-05T11:01:26.240Z,46.60
2018-07-05T11:04:06.040Z,46.60
2018-07-05T11:06:45.999Z,46.80
2018-07-05T11:09:26.563Z,47.30
2018-07-05T11:12:06.648Z,46.90
2018-07-05T11:14:46.369Z,46.70
2018-07-05T11:17:26.428Z,46.30
2018-07-05T11:20:06.388Z,46.60
2018-07-05T11:22:46.315Z,45.90
2018-07-05T11:25:26.277Z,46.30
2018-07-05T11:28:06.359Z,46.60
2018-07-05T11:30:46.064Z,47.50
2018-07-05T11:33:25.816Z,48.80
2018-07-05T11:38:52.059Z,50.30
2018-07-05T11:41:31.699Z,50.30
2018-07-05T11:44:11.349Z,50.30
2018-07-05T11:47:03.730Z,49.50
2018-07-05T11:49:43.623Z,49.40
2018-07-05T11:52:23.131Z,49.80
2018-07-05T11:55:02.733Z,50.60
2018-07-05T11:57:43.278Z,50.40
2018-07-05T12:00:22.876Z,48.20
2018-07-05T12:03:04.860Z,46.10
2018-07-05T12:05:44.451Z,44.40
2018-07-05T12:08:24.025Z,44.80
2018-07-05T12:11:03.650Z,45.80
2018-07-05T12:13:43.323Z,46.30
2018-07-05T12:16:22.835Z,46.30
2018-07-05T12:19:02.404Z,46.60
2018-07-05T12:21:41.852Z,47.20
2018-07-05T12:24:21.520Z,46.70
2018-07-05T12:27:01.090Z,46.00
2018-07-05T12:29:40.620Z,45.30
2018-07-05T12:32:20.583Z,44.20
2018-07-05T12:35:00.068Z,43.10
2018-07-05T12:37:39.691Z,41.30
2018-07-05T12:40:19.322Z,40.00
2018-07-05T12:42:58.805Z,38.70
2018-07-05T12:45:38.394Z,37.50
2018-07-05T12:48:18.019Z,36.40
2018-07-05T12:50:58.083Z,35.80
2018-07-05T12:53:37.952Z,35.10
2018-07-05T12:56:17.581Z,34.70
2018-07-05T12:58:58.480Z,34.50
2018-07-05T13:01:37.921Z,34.00
2018-07-05T13:04:17.644Z,33.90
2018-07-05T13:06:57.785Z,33.80
2018-07-05T13:09:37.260Z,33.80
2018-07-05T13:12:17.050Z,33.40
2018-07-05T13:14:56.527Z,33.30
2018-07-05T13:17:36.416Z,33.30
2018-07-05T13:20:16.135Z,33.50
2018-07-05T13:22:55.759Z,33.60
2018-07-05T13:25:35.735Z,33.80
2018-07-05T13:28:15.183Z,33.70
2018-07-05T13:30:54.879Z,33.60
2018-07-05T13:33:34.970Z,33.30
2018-07-05T13:36:14.621Z,32.90
2018-07-05T13:38:54.110Z,32.30
2018-07-05T13:41:33.564Z,31.90
2018-07-05T13:44:13.327Z,30.70
2018-07-05T13:46:52.815Z,28.80
2018-07-05T13:49:32.530Z,26.90
2018-07-05T13:52:12.073Z,25.80
2018-07-05T13:54:51.842Z,24.70
2018-07-05T13:57:31.286Z,23.70
2018-07-05T14:00:10.867Z,21.60
2018-07-05T14:02:51.469Z,20.10
2018-07-05T14:05:31.030Z,18.70
2018-07-05T14:08:10.584Z,18.00
2018-07-05T14:10:50.123Z,17.80
2018-07-05T14:13:29.714Z,17.70
2018-07-05T14:16:59.851Z,17.70
2018-07-05T14:19:39.469Z,17.90
2018-07-05T14:24:52.781Z,18.00
2018-07-05T14:27:32.418Z,17.90
2018-07-05T14:30:12.304Z,17.80
2018-07-05T14:32:52.039Z,17.90
2018-07-05T14:35:31.551Z,18.00
2018-07-05T14:38:11.270Z,18.10
2018-07-05T14:40:51.106Z,18.20
2018-07-05T14:43:30.758Z,18.40
2018-07-05T14:46:10.467Z,18.80
2018-07-05T14:48:50.314Z,19.00
2018-07-05T14:51:29.924Z,19.20
2018-07-05T14:54:09.594Z,19.50
2018-07-05T14:56:49.231Z,19.80
2018-07-05T14:59:29.854Z,19.80
2018-07-05T15:02:09.561Z,19.90
2018-07-05T15:04:49.345Z,19.80
2018-07-05T15:07:29.870Z,19.80
2018-07-05T15:10:09.541Z,19.80
2018-07-05T15:12:49.385Z,19.80
2018-07-05T15:15:28.990Z,20.20
2018-07-05T15:18:08.521Z,20.40
2018-07-05T15:20:48.205Z,20.20
2018-07-05T15:23:28.149Z,20.10
2018-07-05T15:26:07.953Z,20.10
2018-07-05T15:28:47.587Z,20.10
2018-07-05T15:31:27.252Z,20.30
2018-07-05T15:34:07.214Z,20.60
2018-07-05T15:36:46.904Z,20.60
2018-07-05T15:39:26.635Z,20.70
2018-07-05T15:42:06.184Z,20.80
2018-07-05T15:44:45.868Z,20.90
2018-07-05T15:47:25.521Z,21.00
2018-07-05T15:50:05.323Z,21.30
2018-07-05T15:52:45.158Z,21.40
2018-07-05T15:55:24.826Z,21.70
2018-07-05T15:58:04.630Z,21.80
2018-07-05T16:00:44.445Z,21.90
2018-07-05T16:03:24.103Z,22.10
2018-07-05T16:06:03.900Z,22.50
2018-07-05T16:08:43.764Z,22.60
2018-07-05T16:11:23.654Z,22.40
2018-07-05T16:14:03.298Z,22.70
2018-07-05T16:16:43.672Z,22.80
2018-07-05T16:19:23.272Z,22.90
2018-07-05T16:22:02.951Z,22.90
2018-07-05T16:24:42.640Z,22.90
2018-07-05T16:27:22.470Z,22.90
2018-07-05T16:30:02.491Z,22.60
2018-07-05T16:32:42.182Z,22.50
2018-07-05T16:35:22.011Z,22.40
2018-07-05T16:38:01.843Z,22.40
2018-07-05T16:40:41.679Z,22.50
2018-07-05T16:43:21.467Z,22.40
2018-07-05T16:46:01.420Z,22.40
2018-07-05T16:48:41.064Z,22.50
2018-07-05T16:51:21.246Z,22.60
2018-07-05T16:54:00.977Z,22.70
2018-07-05T16:56:40.988Z,22.40
2018-07-05T16:59:21.562Z,22.50
2018-07-05T17:02:01.594Z,22.60
2018-07-05T17:04:41.673Z,22.70
2018-07-05T17:07:22.064Z,22.70
2018-07-05T17:10:02.232Z,22.80
2018-07-05T17:12:42.620Z,22.70
2018-07-05T17:17:55.997Z,22.90
2018-07-05T17:20:35.774Z,23.00
2018-07-05T17:23:15.362Z,23.00
2018-07-05T17:25:55.043Z,22.90
2018-07-05T17:28:34.782Z,22.90
2018-07-05T17:31:14.439Z,22.90
2018-07-05T17:33:54.135Z,22.90
2018-07-05T17:36:33.661Z,22.90
2018-07-05T17:39:13.315Z,23.00
2018-07-05T17:41:53.129Z,22.70
2018-07-05T17:44:32.679Z,22.90
2018-07-05T17:47:12.369Z,23.00
2018-07-05T17:49:52.170Z,22.90
2018-07-05T17:52:31.761Z,22.70
2018-07-05T17:55:11.478Z,22.90
2018-07-05T17:57:51.400Z,23.10
2018-07-05T18:00:30.920Z,23.10
2018-07-05T18:03:10.659Z,22.90
2018-07-05T18:05:50.483Z,22.90
2018-07-05T18:08:30.143Z,23.00
2018-07-05T18:11:09.813Z,22.90
2018-07-05T18:13:49.695Z,23.10
2018-07-05T18:19:02.985Z,23.30
2018-07-05T18:21:42.859Z,23.20
2018-07-05T18:24:22.511Z,23.20
2018-07-05T18:27:02.108Z,23.30
2018-07-05T18:29:41.876Z,23.20
2018-07-05T18:32:22.582Z,23.40
2018-07-05T18:35:02.327Z,23.50
2018-07-05T18:37:42.130Z,23.40
2018-07-05T18:40:21.910Z,23.50
2018-07-05T18:43:01.624Z,23.40
2018-07-05T18:45:41.308Z,23.10
2018-07-05T18:48:21.110Z,23.00
2018-07-05T18:51:01.649Z,22.90
2018-07-05T18:53:41.387Z,22.80
2018-07-05T18:56:21.334Z,22.50
2018-07-05T18:59:01.516Z,22.40
2018-07-05T19:01:41.206Z,22.40
2018-07-05T19:04:21.161Z,22.50
2018-07-05T19:07:00.714Z,22.50
2018-07-05T19:09:40.330Z,22.40
2018-07-05T19:12:19.938Z,22.40
2018-07-05T19:14:59.646Z,22.10
2018-07-05T19:17:39.252Z,21.90
2018-07-05T19:20:18.851Z,21.90
2018-07-05T19:22:59.244Z,22.00
2018-07-05T19:25:38.911Z,22.30
2018-07-05T19:28:18.427Z,22.20
2018-07-05T19:30:58.314Z,21.90
2018-07-05T19:33:37.818Z,22.20
2018-07-05T19:36:17.368Z,22.40
2018-07-05T19:38:57.152Z,22.60
2018-07-05T19:41:36.837Z,22.50
2018-07-05T19:44:16.474Z,22.60
2018-07-05T19:46:56.267Z,22.50
2018-07-05T19:49:36.911Z,22.30
2018-07-05T19:52:16.545Z,22.60
2018-07-05T19:54:56.477Z,22.80
2018-07-05T19:57:35.851Z,22.80
2018-07-05T20:00:15.381Z,22.80
2018-07-05T20:02:55.148Z,22.80
2018-07-05T20:05:34.794Z,22.80
2018-07-05T20:08:14.454Z,22.90
2018-07-05T20:10:59.360Z,22.90
2018-07-05T20:13:40.273Z,22.90
2018-07-05T20:16:19.880Z,22.90
2018-07-05T20:18:59.794Z,23.00
2018-07-05T20:21:39.686Z,23.00
2018-07-05T20:24:20.556Z,22.80
2018-07-05T20:27:00.155Z,22.60
2018-07-05T20:29:39.828Z,22.40
2018-07-05T20:32:19.478Z,22.70
2018-07-05T20:34:59.276Z,22.60
2018-07-05T20:37:38.750Z,22.70
2018-07-05T20:40:18.356Z,22.70
2018-07-05T20:42:58.820Z,22.60
2018-07-05T20:45:38.479Z,22.80
2018-07-05T20:48:18.183Z,22.90
2018-07-05T20:50:58.084Z,23.00
2018-07-05T20:53:37.640Z,22.90
2018-07-05T20:56:17.408Z,23.00
2018-07-05T20:58:58.164Z,23.20
2018-07-05T21:01:37.663Z,23.10
2018-07-05T21:04:17.326Z,23.20
2018-07-05T21:06:57.086Z,23.00
2018-07-05T21:09:37.118Z,22.90
2018-07-05T21:12:16.831Z,23.10
2018-07-05T21:14:56.460Z,23.00
2018-07-05T21:17:37.024Z,23.20
2018-07-05T21:20:16.894Z,23.20
2018-07-05T21:22:56.664Z,23.10
2018-07-05T21:25:36.681Z,23.20
2018-07-05T21:28:16.302Z,23.00
2018-07-05T21:30:56.040Z,23.00
2018-07-05T21:33:36.815Z,22.80
2018-07-05T21:36:16.414Z,22.90
2018-07-05T21:38:56.063Z,22.90
2018-07-05T21:41:36.596Z,22.90
2018-07-05T21:44:16.300Z,23.00
2018-07-05T21:46:55.968Z,23.10
2018-07-05T21:49:36.100Z,23.10
2018-07-05T21:52:15.803Z,23.10
2018-07-05T21:54:55.564Z,23.10
2018-07-05T21:57:35.402Z,23.20
2018-07-05T22:00:14.894Z,23.20
2018-07-05T22:02:54.542Z,23.10
2018-07-05T22:05:34.206Z,23.00
2018-07-05T22:08:14.414Z,23.10
2018-07-05T22:10:54.026Z,23.10
2018-07-05T22:13:33.910Z,23.10
2018-07-05T22:16:13.887Z,23.10
2018-07-05T22:18:58.897Z,22.90
2018-07-05T22:21:44.090Z,22.80
2018-07-05T22:24:29.066Z,22.70
2018-07-05T22:27:13.135Z,22.80
2018-07-05T22:29:58.598Z,22.60
2018-07-05T22:32:38.289Z,22.50
2018-07-05T22:35:17.762Z,22.40
2018-07-05T22:38:00.676Z,22.30
2018-07-05T22:40:40.475Z,22.10
2018-07-05T22:43:20.238Z,22.10
2018-07-05T22:45:59.986Z,22.00
2018-07-05T22:48:39.687Z,22.00
2018-07-05T22:51:19.772Z,21.80
2018-07-05T22:53:59.634Z,21.90
2018-07-05T22:56:39.277Z,21.80
2018-07-05T22:59:19.019Z,21.90
2018-07-05T23:01:58.925Z,21.80
2018-07-05T23:04:38.871Z,22.00
2018-07-05T23:07:18.598Z,22.00
2018-07-05T23:09:58.671Z,22.00
2018-07-05T23:12:38.327Z,22.10
2018-07-05T23:15:17.898Z,22.10
2018-07-05T23:17:57.653Z,22.20
2018-07-05T23:20:37.310Z,22.30
2018-07-05T23:23:17.098Z,22.30
2018-07-05T23:25:56.860Z,22.30
2018-07-05T23:28:37.010Z,22.20
2018-07-05T23:31:16.726Z,22.20
2018-07-05T23:33:56.313Z,22.20
2018-07-05T23:36:36.848Z,22.00
2018-07-05T23:39:16.882Z,22.10
2018-07-05T23:41:57.777Z,22.10
2018-07-05T23:44:37.338Z,22.10
2018-07-05T23:47:17.277Z,22.10
2018-07-05T23:49:56.914Z,22.10
2018-07-05T23:52:37.428Z,22.20
2018-07-05T23:55:16.967Z,22.40
2018-07-05T23:57:57.232Z,22.50
